Time;durP1;ratioP1;P1;durP2;ratioP2;P2;SDS_P1;SDS_P2;PMS_P1;PMS_P2;Temp;Humidity;BMP_temperature;BMP_pressure;BME280_temperature;BME280_humidity;BME280_pressure;Samples;Min_cycle;Max_cycle;Signal;HPM_P1;HPM_P2
2021/07/18 00:01:25;;;;;;;;;13.00;11.50;;;;;24.59;52.62;101502.88;5081644;27;45422;-74
2021/07/18 00:03:51;;;;;;;;;9.00;9.00;;;;;24.59;52.16;101505.56;5079941;28;57751;-74
2021/07/18 00:06:16;;;;;;;;;10.00;8.50;;;;;24.59;51.84;101502.00;5063322;28;45362;-74
2021/07/18 00:08:41;;;;;;;;;14.25;12.00;;;;;24.58;52.33;101503.78;5045651;28;64984;-74
2021/07/18 00:11:07;;;;;;;;;11.75;9.00;;;;;24.60;52.53;101509.09;5063323;28;45256;-73
2021/07/18 00:13:32;;;;;;;;;11.00;11.00;;;;;24.59;52.80;101508.22;5080605;28;45419;-74
2021/07/18 00:15:58;;;;;;;;;13.25;10.25;;;;;24.55;52.35;101501.22;5080034;28;47823;-74
2021/07/18 00:18:23;;;;;;;;;12.25;10.00;;;;;24.57;52.49;101510.06;5062820;28;56259;-74
2021/07/18 00:20:50;;;;;;;;;13.00;10.25;;;;;24.55;52.65;101506.56;5062354;28;66361;-74
2021/07/18 00:23:16;;;;;;;;;10.25;10.00;;;;;24.57;52.34;101509.19;5063153;28;45237;-73
2021/07/18 00:25:41;;;;;;;;;13.25;10.75;;;;;24.57;52.81;101512.72;5081180;27;45313;-73
2021/07/18 00:28:07;;;;;;;;;12.50;10.50;;;;;24.58;52.71;101521.59;5080818;27;51923;-73
2021/07/18 00:30:32;;;;;;;;;11.00;9.75;;;;;24.56;52.64;101513.66;5080018;28;45262;-74
2021/07/18 00:32:58;;;;;;;;;12.50;10.25;;;;;24.56;52.57;101518.13;5080139;28;45433;-73
2021/07/18 00:35:23;;;;;;;;;13.00;12.00;;;;;24.55;52.44;101516.38;5062798;28;45248;-73
2021/07/18 00:37:49;;;;;;;;;11.75;10.00;;;;;24.46;52.62;101501.56;5080829;28;45313;-73
2021/07/18 00:40:14;;;;;;;;;11.75;11.00;;;;;24.49;52.81;101514.78;5079665;28;45514;-73
2021/07/18 00:42:40;;;;;;;;;11.25;11.25;;;;;24.50;52.67;101512.09;5062779;28;45448;-73
2021/07/18 00:45:07;;;;;;;;;7.75;7.50;;;;;24.54;52.39;101510.19;5079528;28;45682;-73
2021/07/18 00:47:33;;;;;;;;;10.00;9.00;;;;;24.53;52.53;101509.31;5080786;27;46069;-73
2021/07/18 00:49:59;;;;;;;;;9.50;8.00;;;;;24.51;52.93;101504.97;5078769;28;45347;-73
2021/07/18 00:52:24;;;;;;;;;9.50;9.50;;;;;24.51;52.33;101512.97;5062443;28;46959;-73
2021/07/18 00:54:50;;;;;;;;;11.50;10.25;;;;;24.45;52.78;101500.72;5078807;28;56696;-73
2021/07/18 00:57:15;;;;;;;;;9.25;8.25;;;;;24.47;52.61;101509.53;5062574;28;46361;-73
2021/07/18 00:59:41;;;;;;;;;9.00;9.00;;;;;24.49;52.52;101512.13;5062423;28;45718;-73
2021/07/18 01:02:06;;;;;;;;;12.25;11.00;;;;;24.49;52.66;101514.78;5062481;27;45212;-73
2021/07/18 01:04:32;;;;;;;;;11.50;11.50;;;;;24.40;52.88;101496.44;5062481;28;45256;-73
2021/07/18 01:06:57;;;;;;;;;11.00;9.00;;;;;24.39;52.61;101505.38;5062324;28;47187;-73
2021/07/18 01:09:23;;;;;;;;;12.50;10.25;;;;;24.48;52.96;101510.38;5062298;28;45243;-73
2021/07/18 01:11:48;;;;;;;;;12.75;11.00;;;;;24.47;52.67;101519.31;5080323;27;55924;-73
2021/07/18 01:14:14;;;;;;;;;11.50;10.00;;;;;24.45;52.86;101505.19;5061969;28;53413;-73
2021/07/18 01:16:39;;;;;;;;;15.50;13.00;;;;;24.45;53.09;101518.50;5062424;28;46004;-73
2021/07/18 01:19:05;;;;;;;;;11.00;10.50;;;;;24.43;53.01;101517.72;5044020;28;45304;-73
2021/07/18 01:21:31;;;;;;;;;10.00;8.75;;;;;24.41;53.26;101512.44;5037906;28;45372;-73
2021/07/18 01:23:56;;;;;;;;;8.50;8.50;;;;;24.39;52.92;101516.06;5061707;28;45329;-73
2021/07/18 01:26:21;;;;;;;;;10.00;10.00;;;;;24.40;53.38;101509.78;5045289;28;47716;-73
2021/07/18 01:28:47;;;;;;;;;11.50;10.75;;;;;24.39;52.98;101516.94;5079053;28;45425;-73
2021/07/18 01:31:12;;;;;;;;;12.25;10.25;;;;;24.37;52.99;101509.91;5062238;28;45611;-73
2021/07/18 01:33:38;;;;;;;;;11.75;9.75;;;;;24.38;53.44;101512.53;5062148;28;45299;-73
2021/07/18 01:36:03;;;;;;;;;11.50;11.50;;;;;24.41;53.54;101509.75;5061310;28;67215;-73
2021/07/18 01:38:29;;;;;;;;;12.50;10.75;;;;;24.41;52.89;101509.75;5079964;27;45240;-73
2021/07/18 01:40:54;;;;;;;;;8.75;8.50;;;;;24.35;53.14;101503.78;5078244;28;60283;-73
2021/07/18 01:43:20;;;;;;;;;11.00;9.50;;;;;24.38;52.97;101509.84;5079768;27;47548;-73
2021/07/18 01:45:45;;;;;;;;;10.50;9.00;;;;;24.35;53.01;101509.09;5045021;28;47121;-73
2021/07/18 01:48:10;;;;;;;;;9.00;9.00;;;;;24.33;53.69;101514.50;5078806;28;45377;-73
2021/07/18 01:50:36;;;;;;;;;11.50;10.00;;;;;24.33;53.10;101500.28;5078565;28;47549;-73
2021/07/18 01:53:03;;;;;;;;;9.50;9.00;;;;;24.33;53.18;101502.97;5079673;27;45237;-73
2021/07/18 01:55:28;;;;;;;;;12.75;11.25;;;;;24.21;53.60;101485.53;5078733;28;45357;-73
2021/07/18 01:57:54;;;;;;;;;12.50;11.00;;;;;24.28;53.40;101496.88;5079974;27;45416;-73
2021/07/18 02:00:19;;;;;;;;;9.75;8.25;;;;;24.26;53.16;101488.94;5062148;28;45339;-73
2021/07/18 02:02:46;;;;;;;;;10.50;10.50;;;;;24.28;53.71;101494.19;5082023;28;49698;-73
2021/07/18 02:05:12;;;;;;;;;12.25;9.75;;;;;24.29;53.13;101494.13;5083431;28;45537;-73
2021/07/18 02:07:38;;;;;;;;;11.00;11.00;;;;;24.29;53.14;101495.94;5083221;27;45330;-73
2021/07/18 02:10:04;;;;;;;;;10.00;10.00;;;;;24.28;53.53;101496.88;5081934;28;45302;-73
2021/07/18 02:12:32;;;;;;;;;11.75;10.25;;;;;24.31;52.97;101496.75;5064982;28;45282;-73
2021/07/18 02:14:58;;;;;;;;;7.75;7.75;;;;;24.29;53.23;101496.81;5083308;28;45387;-73
2021/07/18 02:17:23;;;;;;;;;10.25;10.25;;;;;24.25;53.08;101493.41;5064117;28;68833;-73
2021/07/18 02:19:48;;;;;;;;;12.75;11.00;;;;;24.23;52.90;101489.00;5083129;27;45222;-73
2021/07/18 02:22:14;;;;;;;;;10.50;8.75;;;;;24.23;53.15;101492.56;5083071;27;45384;-73
2021/07/18 02:24:39;;;;;;;;;11.25;10.25;;;;;24.22;53.20;101504.16;5081913;27;64814;-73
2021/07/18 02:27:07;;;;;;;;;12.00;11.50;;;;;24.18;53.43;101494.53;5064809;28;45312;-73
2021/07/18 02:29:32;;;;;;;;;9.50;9.00;;;;;24.19;53.11;101496.28;5083134;27;45381;-73
2021/07/18 02:31:58;;;;;;;;;12.00;12.00;;;;;24.13;53.33;101488.47;5082863;28;45308;-73
2021/07/18 02:34:23;;;;;;;;;9.25;9.25;;;;;24.20;53.33;101499.81;5082932;27;45507;-73
2021/07/18 02:36:49;;;;;;;;;11.50;11.50;;;;;24.18;53.34;101496.31;5083070;27;45358;-73
2021/07/18 02:39:14;;;;;;;;;9.75;9.50;;;;;24.16;53.40;101491.06;5082980;27;45358;-73
2021/07/18 02:41:39;;;;;;;;;11.75;9.50;;;;;24.17;53.64;101500.78;5064560;28;47177;-73
2021/07/18 02:44:05;;;;;;;;;9.25;8.50;;;;;24.17;53.01;101497.25;5082067;27;63396;-73
2021/07/18 02:46:32;;;;;;;;;10.25;10.00;;;;;24.16;53.67;101496.38;5081408;28;45277;-73
2021/07/18 02:48:57;;;;;;;;;12.75;11.00;;;;;24.09;53.35;101488.66;5082932;27;45370;-73
2021/07/18 02:51:22;;;;;;;;;11.25;11.25;;;;;24.13;53.15;101491.13;5081278;28;45504;-73
2021/07/18 02:53:48;;;;;;;;;10.00;9.00;;;;;24.14;53.91;101492.00;5082604;27;45327;-73
2021/07/18 02:56:13;;;;;;;;;11.00;10.75;;;;;24.15;53.41;101488.41;5080171;28;64793;-73
2021/07/18 02:58:38;;;;;;;;;10.75;9.25;;;;;24.11;53.05;101477.00;5082788;27;45269;-73
2021/07/18 03:01:04;;;;;;;;;10.75;10.00;;;;;24.12;53.55;101480.53;5081905;27;64961;-73
2021/07/18 03:03:29;;;;;;;;;10.75;10.75;;;;;24.15;53.81;101475.97;5064039;28;50738;-73
2021/07/18 03:05:55;;;;;;;;;10.00;9.00;;;;;24.15;53.51;101473.31;5081912;27;58523;-73
2021/07/18 03:08:20;;;;;;;;;11.00;10.25;;;;;24.16;53.27;101477.72;5082060;27;51143;-73
2021/07/18 03:10:45;;;;;;;;;12.00;10.00;;;;;24.15;53.30;101481.31;5081145;28;45465;-73
2021/07/18 03:13:11;;;;;;;;;11.50;8.50;;;;;24.17;53.76;101478.59;5062723;28;69176;-73
2021/07/18 03:15:36;;;;;;;;;10.25;10.25;;;;;24.12;53.88;101475.19;5081273;28;45366;-73
2021/07/18 03:18:02;;;;;;;;;9.25;9.25;;;;;24.14;53.58;101481.34;5082176;27;50206;-73
2021/07/18 03:20:27;;;;;;;;;8.75;8.75;;;;;24.12;53.22;101478.72;5082083;27;45410;-73
2021/07/18 03:22:53;;;;;;;;;9.75;9.50;;;;;24.11;53.05;101478.78;5081425;27;60834;-73
2021/07/18 03:25:18;;;;;;;;;10.00;8.75;;;;;24.12;53.78;101488.53;5081910;27;45305;-73
2021/07/18 03:27:44;;;;;;;;;10.75;7.75;;;;;24.10;53.52;101477.06;5082452;27;45312;-73
2021/07/18 03:30:13;;;;;;;;;6.75;6.75;;;;;24.13;53.64;101480.47;5081107;28;45417;-73
2021/07/18 03:32:39;;;;;;;;;9.50;8.25;;;;;24.14;53.68;101476.00;5082127;27;45669;-73
2021/07/18 03:35:05;;;;;;;;;10.00;9.50;;;;;24.09;53.30;101468.19;5082030;27;45471;-73
2021/07/18 03:37:31;;;;;;;;;11.50;10.00;;;;;24.13;53.93;101471.59;5080967;28;45389;-73
2021/07/18 03:39:56;;;;;;;;;10.75;10.75;;;;;24.10;53.48;101471.72;5080433;28;45489;-73
2021/07/18 03:42:22;;;;;;;;;11.50;9.25;;;;;24.11;53.34;101481.47;5080745;28;45358;-73
2021/07/18 03:44:47;;;;;;;;;8.25;8.25;;;;;24.10;53.41;101482.38;5080720;28;45322;-73
2021/07/18 03:47:13;;;;;;;;;11.00;9.00;;;;;24.09;53.33;101481.53;5063798;28;45826;-73
2021/07/18 03:49:38;;;;;;;;;9.00;7.25;;;;;24.09;53.99;101486.84;5063790;28;45401;-73
2021/07/18 03:52:04;;;;;;;;;9.25;9.00;;;;;24.02;53.29;101479.97;5081601;27;46133;-73
2021/07/18 03:54:29;;;;;;;;;9.50;9.50;;;;;24.04;53.33;101486.13;5080236;28;45321;-73
2021/07/18 03:56:54;;;;;;;;;11.50;11.00;;;;;24.05;53.83;101481.66;5081270;27;57932;-73
2021/07/18 03:59:20;;;;;;;;;13.50;11.00;;;;;24.07;54.11;101487.84;5079770;28;62132;-73
2021/07/18 04:01:45;;;;;;;;;9.75;8.75;;;;;24.08;53.45;101490.44;5081209;27;58960;-73
2021/07/18 04:04:11;;;;;;;;;10.00;9.00;;;;;24.05;53.58;101482.53;5080455;27;45355;-73
2021/07/18 04:06:36;;;;;;;;;8.00;8.00;;;;;24.02;53.97;101477.31;5081178;27;56081;-73
2021/07/18 04:09:02;;;;;;;;;11.00;11.00;;;;;23.99;53.71;101466.78;5079423;28;65668;-73
2021/07/18 04:11:28;;;;;;;;;8.75;8.25;;;;;24.03;54.01;101470.19;5063374;28;48300;-73
2021/07/18 04:13:53;;;;;;;;;11.25;10.00;;;;;23.99;53.50;101474.78;5081433;27;45199;-73
2021/07/18 04:16:18;;;;;;;;;12.00;9.50;;;;;23.98;53.35;101478.38;5063499;28;45236;-73
2021/07/18 04:18:44;;;;;;;;;12.00;9.25;;;;;23.96;54.14;101477.53;5079383;28;64603;-73
2021/07/18 04:21:09;;;;;;;;;8.50;8.50;;;;;23.97;53.80;101481.94;5080959;27;56328;-73
2021/07/18 04:23:35;;;;;;;;;9.75;9.25;;;;;23.99;53.47;101485.44;5078729;28;60418;-73
2021/07/18 04:26:00;;;;;;;;;10.00;7.25;;;;;23.98;53.46;101483.69;5079435;28;45379;-73
2021/07/18 04:28:26;;;;;;;;;10.25;10.00;;;;;23.93;53.50;101486.50;5079049;28;68904;-73
2021/07/18 04:30:51;;;;;;;;;10.50;8.50;;;;;23.94;53.93;101490.03;5063202;28;45348;-73
2021/07/18 04:33:16;;;;;;;;;11.00;9.50;;;;;23.92;53.40;101494.56;5080628;27;61441;-73
2021/07/18 04:35:42;;;;;;;;;11.25;11.25;;;;;23.91;53.22;101487.50;5081367;27;45298;-73
2021/07/18 04:38:07;;;;;;;;;11.50;10.00;;;;;23.91;53.73;101492.81;5079724;28;45301;-73
2021/07/18 04:40:33;;;;;;;;;10.50;10.00;;;;;23.88;53.68;101487.56;5079855;28;47077;-73
2021/07/18 04:42:59;;;;;;;;;8.75;8.50;;;;;23.92;53.79;101495.44;5062710;28;45436;-73
2021/07/18 04:45:24;;;;;;;;;10.00;9.00;;;;;23.91;53.40;101493.69;5081209;27;45238;-73
2021/07/18 04:47:54;;;;;;;;;11.50;8.50;;;;;23.88;53.55;101492.91;5080954;28;45187;-73
2021/07/18 04:50:21;;;;;;;;;10.25;10.25;;;;;23.89;53.40;101495.56;5079573;28;46504;-73
2021/07/18 04:52:46;;;;;;;;;9.50;8.25;;;;;23.91;53.31;101498.16;5077725;28;45489;-73
2021/07/18 04:55:12;;;;;;;;;9.25;9.00;;;;;23.90;53.39;101497.28;5081076;27;45332;-73
2021/07/18 04:57:37;;;;;;;;;7.50;7.00;;;;;23.91;53.32;101503.50;5079523;28;45356;-73
2021/07/18 05:00:13;;;;;;;;;8.50;8.50;;;;;23.90;53.46;101507.97;5080780;27;46201;-72
2021/07/18 05:02:39;;;;;;;;;11.50;9.25;;;;;23.92;54.04;101510.56;5079361;28;45800;-68
2021/07/18 05:05:05;;;;;;;;;10.00;9.00;;;;;23.92;53.42;101513.22;5079562;27;45225;-69
2021/07/18 05:07:30;;;;;;;;;7.25;7.25;;;;;23.92;54.24;101505.22;5062551;28;45630;-73
2021/07/18 05:09:56;;;;;;;;;12.00;10.75;;;;;23.94;54.41;101514.91;5061908;28;59634;-72
2021/07/18 05:12:21;;;;;;;;;11.50;10.25;;;;;24.00;55.14;101523.63;5078878;28;61190;-71
2021/07/18 05:14:47;;;;;;;;;14.50;10.50;;;;;24.04;56.07;101514.59;5080800;27;45910;-72
2021/07/18 05:17:13;;;;;;;;;9.50;8.75;;;;;24.10;55.23;101519.72;5080617;27;45488;-72
2021/07/18 05:19:39;;;;;;;;;10.50;9.00;;;;;24.13;55.01;101520.47;5080428;27;45401;-71
2021/07/18 05:22:04;;;;;;;;;10.00;8.75;;;;;24.14;55.59;101524.00;5062302;28;45351;-71
2021/07/18 05:24:29;;;;;;;;;11.75;10.00;;;;;24.18;54.76;101526.53;5080425;27;45687;-72
2021/07/18 05:26:55;;;;;;;;;9.00;9.00;;;;;24.18;55.14;101517.66;5080455;27;45373;-71
2021/07/18 05:29:20;;;;;;;;;8.75;7.75;;;;;24.23;54.45;101515.69;5082539;27;45520;-74
2021/07/18 05:31:46;;;;;;;;;8.00;8.00;;;;;24.24;55.06;101515.66;5080401;27;45247;-74
2021/07/18 05:34:11;;;;;;;;;6.75;6.50;;;;;24.25;54.75;101503.19;5062228;28;45359;-75
2021/07/18 05:36:37;;;;;;;;;11.75;10.25;;;;;24.28;54.26;101502.22;5078623;28;45579;-71
2021/07/18 05:39:03;;;;;;;;;16.25;12.50;;;;;24.25;54.52;101495.19;5080183;27;45348;-74
2021/07/18 05:41:29;;;;;;;;;11.25;11.25;;;;;24.43;54.44;101512.38;5062017;28;45414;-72
2021/07/18 05:43:54;;;;;;;;;9.75;9.75;;;;;24.50;54.37;101519.25;5078524;28;59489;-72
2021/07/18 05:46:19;;;;;;;;;8.75;8.00;;;;;24.53;54.28;101511.09;5080134;27;45358;-72
2021/07/18 05:48:45;;;;;;;;;10.25;9.50;;;;;24.54;53.72;101515.50;5080119;27;45324;-72
2021/07/18 05:51:10;;;;;;;;;8.25;8.25;;;;;24.59;53.17;101512.69;5078620;28;45422;-73
2021/07/18 05:53:36;;;;;;;;;8.75;8.75;;;;;24.61;53.42;101511.69;5079747;27;48600;-73
2021/07/18 05:56:01;;;;;;;;;8.50;8.00;;;;;24.67;53.29;101516.81;5077911;28;68269;-74
2021/07/18 05:58:26;;;;;;;;;7.50;7.50;;;;;24.69;52.47;101512.28;5061208;28;64677;-72
2021/07/18 06:00:52;;;;;;;;;8.00;7.00;;;;;24.74;52.95;101506.75;5061805;28;45176;-83
2021/07/18 06:03:17;;;;;;;;;7.25;6.75;;;;;24.65;52.34;101493.75;5062169;28;45194;-75
2021/07/18 06:05:43;;;;;;;;;9.00;7.25;;;;;24.69;52.27;101514.97;5061326;28;50754;-75
2021/07/18 06:08:13;;;;;;;;;5.00;5.00;;;;;24.70;52.12;101514.03;5078565;28;45308;-75
2021/07/18 06:10:38;;;;;;;;;9.25;8.75;;;;;24.69;52.21;101512.28;5078649;27;45410;-76
2021/07/18 06:13:04;;;;;;;;;9.00;7.50;;;;;24.74;52.67;101514.78;5078893;28;45393;-70
2021/07/18 06:15:29;;;;;;;;;8.75;8.25;;;;;24.76;52.27;101526.28;5077840;28;66188;-74
2021/07/18 06:17:55;;;;;;;;;9.75;7.00;;;;;24.76;52.09;101521.81;5079930;27;45305;-75
2021/07/18 06:20:20;;;;;;;;;8.25;8.00;;;;;24.79;51.92;101523.50;5079679;27;45266;-73
2021/07/18 06:22:45;;;;;;;;;8.75;7.50;;;;;24.81;51.34;101519.81;5077841;28;58886;-74
2021/07/18 06:25:11;;;;;;;;;6.25;6.00;;;;;24.84;51.58;101529.50;5079488;27;45169;-76
2021/07/18 06:27:39;;;;;;;;;7.00;7.00;;;;;24.86;50.81;101526.81;5078365;28;47111;-81
2021/07/18 06:30:06;;;;;;;;;7.75;7.75;;;;;24.80;51.17;101512.75;5078977;28;45400;-78
2021/07/18 06:32:31;;;;;;;;;8.00;8.00;;;;;24.81;50.81;101514.47;5061924;28;45419;-79
2021/07/18 06:34:56;;;;;;;;;7.00;7.00;;;;;24.88;50.76;101525.81;5061305;28;50610;-77
2021/07/18 06:37:22;;;;;;;;;9.00;9.00;;;;;24.81;50.49;101517.16;5079319;27;59798;-81
2021/07/18 06:39:47;;;;;;;;;5.50;5.50;;;;;24.90;50.82;101528.41;5077258;27;63950;-81
2021/07/18 06:42:13;;;;;;;;;7.50;6.75;;;;;24.91;51.41;101528.34;5061618;28;45426;-78
2021/07/18 06:44:38;;;;;;;;;5.75;5.75;;;;;24.91;50.54;101536.38;5061099;28;45487;-82
2021/07/18 06:47:04;;;;;;;;;7.25;6.50;;;;;24.96;50.10;101538.88;5061755;28;49109;-81
2021/07/18 06:49:29;;;;;;;;;7.00;7.00;;;;;24.93;50.62;101531.84;5064977;28;45421;-82
2021/07/18 06:51:54;;;;;;;;;7.75;6.50;;;;;24.95;50.03;101531.81;5064493;28;49352;-81
2021/07/18 06:54:20;;;;;;;;;8.50;8.50;;;;;24.98;50.23;101537.00;5064139;28;45233;-79
2021/07/18 06:56:46;;;;;;;;;6.25;6.25;;;;;24.94;50.26;101532.72;5063887;28;46876;-79
2021/07/18 06:59:11;;;;;;;;;5.50;5.25;;;;;24.98;50.63;101535.22;5064345;28;45501;-79
2021/07/18 07:01:37;;;;;;;;;6.50;6.50;;;;;24.97;50.32;101521.91;5064912;28;45308;-75
2021/07/18 07:04:02;;;;;;;;;9.00;8.50;;;;;24.96;49.95;101522.84;5081642;28;45265;-77
2021/07/18 07:06:28;;;;;;;;;7.50;7.25;;;;;24.98;50.87;101521.00;5082495;27;45224;-87
2021/07/18 07:08:53;;;;;;;;;6.50;6.50;;;;;25.01;50.17;101529.75;5047633;28;45250;-81
2021/07/18 07:11:19;;;;;;;;;7.75;7.50;;;;;24.94;49.85;101514.91;5064697;28;45446;-81
2021/07/18 07:13:45;;;;;;;;;7.75;7.00;;;;;24.96;49.83;101518.38;5082400;27;45547;-80
2021/07/18 07:16:11;;;;;;;;;5.50;5.50;;;;;24.99;50.45;101522.72;5064381;28;46105;-78
2021/07/18 07:18:36;;;;;;;;;7.00;7.00;;;;;25.02;50.25;101527.94;5080984;28;45322;-76
2021/07/18 07:21:02;;;;;;;;;6.25;6.00;;;;;25.00;50.36;101529.81;5093649;27;45939;-80
2021/07/18 07:23:27;;;;;;;;;7.50;7.50;;;;;25.04;50.32;101528.81;5080604;28;45449;-80
2021/07/18 07:25:52;;;;;;;;;7.75;6.75;;;;;25.02;50.01;101525.28;5046870;28;55710;-80
2021/07/18 07:28:18;;;;;;;;;8.25;6.50;;;;;25.04;50.11;101528.81;5047125;28;45603;-81
2021/07/18 07:30:43;;;;;;;;;11.25;9.50;;;;;25.01;49.78;101518.19;5081329;28;45607;-81
2021/07/18 07:33:09;;;;;;;;;5.75;5.75;;;;;25.04;50.34;101516.31;5063995;28;45446;-80
2021/07/18 07:35:34;;;;;;;;;7.25;6.50;;;;;25.11;49.89;101526.75;5046876;28;58434;-80
2021/07/18 07:38:00;;;;;;;;;6.50;6.50;;;;;25.08;50.16;101519.72;5081787;27;45240;-80
2021/07/18 07:40:25;;;;;;;;;6.75;6.25;;;;;25.13;50.08;101528.44;5081199;28;45310;-80
2021/07/18 07:42:50;;;;;;;;;6.50;6.50;;;;;25.11;49.67;101521.41;5063725;28;45502;-80
2021/07/18 07:45:16;;;;;;;;;6.00;6.00;;;;;25.13;50.01;101531.13;5063052;28;68450;-80
2021/07/18 07:47:41;;;;;;;;;8.00;6.00;;;;;25.13;49.87;101522.25;5046917;28;45949;-81
2021/07/18 07:50:11;;;;;;;;;6.25;4.50;;;;;25.15;49.82;101523.03;5047131;28;45299;-80
2021/07/18 07:52:36;;;;;;;;;6.75;6.75;;;;;25.13;50.05;101517.78;5063480;28;45268;-80
2021/07/18 07:55:03;;;;;;;;;7.00;6.00;;;;;25.16;49.77;101520.31;5063485;28;48421;-80
2021/07/18 07:57:28;;;;;;;;;6.75;6.50;;;;;25.20;49.63;101524.63;5063357;28;45995;-80
2021/07/18 07:59:53;;;;;;;;;6.75;5.75;;;;;25.23;49.94;101524.47;5063264;28;55549;-80
2021/07/18 08:02:19;;;;;;;;;7.25;7.00;;;;;25.25;49.69;101530.63;5080394;28;45354;-80
2021/07/18 08:04:44;;;;;;;;;6.25;6.00;;;;;25.26;49.92;101532.38;5080314;28;47040;-80
2021/07/18 08:07:10;;;;;;;;;7.50;7.50;;;;;25.24;49.63;101520.00;5080397;28;45268;-80
2021/07/18 08:09:35;;;;;;;;;6.50;6.50;;;;;25.27;49.49;101526.09;5063359;28;45905;-80
2021/07/18 08:12:00;;;;;;;;;5.00;5.00;;;;;25.31;49.72;101526.84;5063528;28;45426;-80
2021/07/18 08:14:26;;;;;;;;;6.25;6.00;;;;;25.26;49.43;101519.00;5045580;28;67863;-81
2021/07/18 08:16:51;;;;;;;;;6.00;5.25;;;;;25.32;50.25;101521.44;5062981;28;52825;-80
2021/07/18 08:19:17;;;;;;;;;7.00;6.00;;;;;25.33;49.73;101523.19;5062830;28;52444;-80
2021/07/18 08:21:42;;;;;;;;;7.25;7.25;;;;;25.30;49.72;101517.97;5079601;28;61865;-80
2021/07/18 08:24:08;;;;;;;;;5.00;5.00;;;;;25.38;49.83;101522.16;5062059;28;68002;-80
2021/07/18 08:26:34;;;;;;;;;5.75;5.00;;;;;25.33;49.93;101514.31;5063269;28;45204;-80
2021/07/18 08:29:00;;;;;;;;;8.00;5.00;;;;;25.39;49.71;101511.41;5063424;28;45480;-80
2021/07/18 08:31:25;;;;;;;;;5.25;5.25;;;;;25.41;49.72;101512.19;5046451;28;45384;-80
2021/07/18 08:33:52;;;;;;;;;7.00;6.50;;;;;25.41;49.47;101508.66;5079122;28;69155;-80
2021/07/18 08:36:18;;;;;;;;;6.00;6.00;;;;;25.44;49.09;101521.88;5063129;28;45364;-80
2021/07/18 08:38:43;;;;;;;;;4.75;4.75;;;;;25.41;49.53;101506.84;5079831;28;45274;-80
2021/07/18 08:41:09;;;;;;;;;4.00;4.00;;;;;25.41;49.75;101508.66;5079620;28;60249;-80
2021/07/18 08:43:34;;;;;;;;;5.75;5.00;;;;;25.43;49.50;101512.13;5059527;28;47053;-81
2021/07/18 08:45:59;;;;;;;;;5.00;5.00;;;;;25.43;49.62;101504.97;5052860;28;45283;-80
2021/07/18 08:48:25;;;;;;;;;6.00;5.25;;;;;25.44;49.72;101497.81;5059331;28;52203;-81
2021/07/18 08:50:51;;;;;;;;;5.25;4.50;;;;;25.47;49.27;101503.06;5061154;28;60915;-81
2021/07/18 08:53:16;;;;;;;;;7.00;6.00;;;;;25.41;49.59;101490.81;5062439;28;47108;-81
2021/07/18 08:55:42;;;;;;;;;6.75;6.75;;;;;25.42;48.84;101489.88;5079650;28;45355;-81
2021/07/18 08:58:07;;;;;;;;;7.00;6.00;;;;;25.48;49.46;101504.81;5062789;28;45641;-80
2021/07/18 09:00:33;;;;;;;;;6.50;5.25;;;;;25.49;49.24;101495.84;5062748;27;45523;-81
2021/07/18 09:02:58;;;;;;;;;5.75;5.75;;;;;25.51;48.82;101504.66;5062532;28;45316;-81
2021/07/18 09:05:24;;;;;;;;;5.00;4.25;;;;;25.48;49.28;101496.78;5079326;28;47818;-81
2021/07/18 09:07:51;;;;;;;;;5.75;5.75;;;;;25.52;49.40;101501.06;5062627;28;45334;-80
2021/07/18 09:10:29;;;;;;;;;4.75;4.50;;;;;25.52;48.91;101501.06;5062133;28;45372;-80
2021/07/18 09:13:09;;;;;;;;;6.50;5.75;;;;;25.50;48.98;101498.47;5062653;28;45298;-80
2021/07/18 09:15:47;;;;;;;;;5.25;5.25;;;;;25.54;49.20;101499.19;5063255;28;45247;-80
2021/07/18 09:18:15;;;;;;;;;5.25;5.25;;;;;25.55;49.28;101495.63;5079576;28;45390;-80
2021/07/18 09:20:42;;;;;;;;;5.00;5.00;;;;;25.54;49.08;101494.75;5072994;28;45500;-79
2021/07/18 09:23:13;;;;;;;;;6.75;5.50;;;;;25.52;48.82;101487.69;5041983;28;46505;-80
2021/07/18 09:25:39;;;;;;;;;5.75;4.75;;;;;25.56;48.85;101487.53;5042601;28;45453;-80
2021/07/18 09:28:15;;;;;;;;;4.75;4.75;;;;;25.55;48.16;101484.91;5072094;28;45365;-81
2021/07/18 09:30:40;;;;;;;;;5.75;5.00;;;;;25.58;48.71;101490.13;5079901;27;45495;-81
2021/07/18 09:33:06;;;;;;;;;4.50;4.25;;;;;25.54;48.52;101475.13;5062255;28;47185;-81
2021/07/18 09:35:31;;;;;;;;;7.00;6.00;;;;;25.60;48.68;101489.13;5062307;28;45450;-80
2021/07/18 09:37:57;;;;;;;;;5.00;5.00;;;;;25.59;48.42;101471.34;5062216;28;45265;-81
2021/07/18 09:40:23;;;;;;;;;5.00;4.75;;;;;25.61;48.58;101479.28;5062174;28;45712;-81
2021/07/18 09:42:49;;;;;;;;;5.75;5.00;;;;;25.56;48.07;101471.47;5062231;28;46152;-81
2021/07/18 09:45:24;;;;;;;;;6.00;5.00;;;;;25.64;48.31;101481.88;5075174;28;45285;-80
2021/07/18 09:47:55;;;;;;;;;5.50;4.75;;;;;25.58;48.53;101476.75;5079382;28;45419;-79
2021/07/18 09:50:34;;;;;;;;;6.00;6.00;;;;;25.59;47.53;101481.16;5079833;28;45474;-81
2021/07/18 09:53:16;;;;;;;;;4.25;4.25;;;;;25.62;47.32;101473.88;5078826;27;46885;-77
2021/07/18 09:56:11;;;;;;;;;;;;;;;;;;;;;
2021/07/18 09:58:51;;;;;;;;;4.00;4.00;;;;;25.65;48.54;101468.41;5078095;28;68885;-75
2021/07/18 10:01:30;;;;;;;;;5.25;3.50;;;;;25.66;48.71;101466.63;5079910;28;45400;-82
2021/07/18 10:03:56;;;;;;;;;4.00;4.00;;;;;25.62;48.90;101463.19;5045764;28;46112;-76
2021/07/18 10:06:27;;;;;;;;;4.00;4.00;;;;;25.74;48.82;101471.69;5080246;27;45204;-75
2021/07/18 10:08:57;;;;;;;;;4.00;4.00;;;;;25.77;48.50;101485.78;5078517;28;45365;-78
2021/07/18 10:11:24;;;;;;;;;3.00;3.00;;;;;25.78;48.42;101484.84;5078680;28;45990;-76
2021/07/18 10:13:50;;;;;;;;;5.75;5.00;;;;;25.79;48.52;101478.56;5078482;28;45552;-73
2021/07/18 10:16:16;;;;;;;;;4.00;4.00;;;;;25.78;48.78;101486.66;5078537;27;45383;-73
2021/07/18 10:18:43;;;;;;;;;5.50;5.50;;;;;25.78;48.81;101476.81;5061577;28;45671;-75
2021/07/18 10:21:10;;;;;;;;;4.50;4.50;;;;;25.80;48.77;101477.66;5079953;27;45527;-75
2021/07/18 10:23:36;;;;;;;;;5.25;5.25;;;;;25.80;48.66;101472.28;5081353;27;46273;-79
2021/07/18 10:26:02;;;;;;;;;4.75;4.75;;;;;25.78;48.92;101476.81;5065197;28;45252;-79
2021/07/18 10:28:27;;;;;;;;;5.00;5.00;;;;;25.82;48.43;101473.09;5066045;28;45236;-78
2021/07/18 10:30:58;;;;;;;;;5.25;3.75;;;;;25.82;47.51;101477.56;5083944;28;45358;-78
2021/07/18 10:33:24;;;;;;;;;4.00;4.00;;;;;25.82;47.52;101473.09;5065070;28;45307;-75
2021/07/18 10:35:50;;;;;;;;;6.00;5.75;;;;;25.81;47.29;101470.50;5078323;28;45443;-76
2021/07/18 10:38:17;;;;;;;;;4.75;4.00;;;;;25.77;47.56;101453.69;5082824;27;45512;-79
2021/07/18 10:40:46;;;;;;;;;4.25;4.25;;;;;25.78;47.20;101457.22;5083085;28;45209;-82
2021/07/18 10:43:38;;;;;;;;;6.50;5.50;;;;;25.81;47.22;101460.66;5081479;27;47335;-74
2021/07/18 10:46:13;;;;;;;;;6.25;6.25;;;;;25.78;46.83;101465.25;5075347;27;45342;-83
2021/07/18 10:48:49;;;;;;;;;9.25;6.75;;;;;25.82;46.69;101446.34;5058320;28;45303;-77
2021/07/18 10:51:18;;;;;;;;;6.25;6.25;;;;;25.81;47.25;101447.28;5098572;27;45381;-83
2021/07/18 10:53:44;;;;;;;;;5.25;4.25;;;;;25.79;47.20;101449.13;5062589;27;47148;-82
2021/07/18 10:56:10;;;;;;;;;4.00;4.00;;;;;25.78;47.09;101433.16;5046628;28;45609;-79
2021/07/18 10:58:38;;;;;;;;;4.00;4.00;;;;;25.83;46.82;101439.19;5081829;28;45217;-83
2021/07/18 11:01:27;;;;;;;;;6.00;4.25;;;;;25.76;46.43;101433.25;5083154;28;45212;-80
2021/07/18 11:03:52;;;;;;;;;6.00;6.00;;;;;25.76;45.89;101440.38;5075347;28;45454;-83
2021/07/18 11:06:18;;;;;;;;;5.00;5.00;;;;;25.80;45.88;101437.53;5049341;28;45297;-80
2021/07/18 11:09:05;;;;;;;;;5.00;5.00;;;;;25.80;46.02;101437.53;5081421;28;45350;-83
2021/07/18 11:11:44;;;;;;;;;4.25;4.25;;;;;25.74;45.97;101427.09;5072241;27;45247;-81
2021/07/18 11:14:34;;;;;;;;;6.50;6.25;;;;;25.80;46.43;101432.19;5046654;28;47123;-76
2021/07/18 11:17:06;;;;;;;;;3.50;3.00;;;;;25.74;45.00;101411.06;5071611;28;45328;-77
2021/07/18 11:19:34;;;;;;;;;6.00;4.25;;;;;25.84;44.78;101436.44;5081737;28;45432;-84